Time;durP1;ratioP1;P1;durP2;ratioP2;P2;SDS_P1;SDS_P2;PMS_P1;PMS_P2;Temp;Humidity;BMP_temperature;BMP_pressure;BME280_temperature;BME280_humidity;BME280_pressure;Samples;Min_cycle;Max_cycle;Signal;HPM_P1;HPM_P2
2022/10/06 00:00:43;;;;;;;10.57;5.22;;;10.70;99.90;;;;;;5028785;28;20044;-75
2022/10/06 00:03:08;;;;;;;;;;;10.70;99.90;;;;;;5028822;28;20138;-75
2022/10/06 00:05:34;;;;;;;9.40;4.18;;;10.70;99.90;;;;;;5030001;28;19917;-75
2022/10/06 00:08:00;;;;;;;;;;;10.70;99.90;;;;;;5028985;28;20036;-75
2022/10/06 00:10:26;;;;;;;10.40;5.05;;;10.70;99.90;;;;;;5029994;28;20513;-75
2022/10/06 00:12:52;;;;;;;14.32;7.03;;;10.70;99.90;;;;;;5030056;28;20080;-75
2022/10/06 00:15:19;;;;;;;;;;;10.70;99.90;;;;;;5028929;28;20037;-76
2022/10/06 00:17:45;;;;;;;13.32;5.95;;;10.70;99.90;;;;;;5028850;28;19913;-75
2022/10/06 00:20:11;;;;;;;11.15;5.20;;;10.70;99.90;;;;;;5029654;28;20033;-75
2022/10/06 00:22:40;;;;;;;11.52;4.80;;;10.70;99.90;;;;;;5029926;28;20029;-76
2022/10/06 00:25:07;;;;;;;10.13;5.15;;;10.70;99.90;;;;;;5028296;28;20781;-76
2022/10/06 00:27:35;;;;;;;9.63;5.72;;;10.60;99.90;;;;;;5027839;28;20040;-76
2022/10/06 00:30:02;;;;;;;8.05;4.53;;;10.60;99.90;;;;;;5027345;28;20056;-75
2022/10/06 00:32:28;;;;;;;14.10;5.28;;;10.60;99.90;;;;;;5028294;28;20041;-75
2022/10/06 00:34:53;;;;;;;;;;;10.60;99.90;;;;;;5028593;28;20092;-76
2022/10/06 00:37:19;;;;;;;18.75;5.85;;;10.50;99.90;;;;;;5028056;28;19909;-75
2022/10/06 00:39:44;;;;;;;;;;;10.40;99.90;;;;;;5029552;28;20037;-75
2022/10/06 00:42:25;;;;;;;16.08;7.07;;;10.40;99.90;;;;;;5029436;28;19909;-75
2022/10/06 00:44:52;;;;;;;10.32;6.57;;;10.40;99.90;;;;;;5027992;28;20041;-75
2022/10/06 00:47:21;;;;;;;17.50;6.88;;;10.30;99.90;;;;;;5029171;28;20605;-75
2022/10/06 00:49:48;;;;;;;13.50;6.32;;;10.30;99.90;;;;;;5029240;28;20110;-75
2022/10/06 00:52:19;;;;;;;10.15;5.03;;;10.30;99.90;;;;;;5029167;28;20040;-75
2022/10/06 00:54:45;;;;;;;11.75;5.40;;;10.20;99.90;;;;;;5029229;28;20091;-75
2022/10/06 00:57:11;;;;;;;;;;;10.20;99.90;;;;;;5028115;28;20045;-75
2022/10/06 00:59:38;;;;;;;10.70;4.35;;;10.10;99.90;;;;;;5029169;28;20292;-75
2022/10/06 01:02:26;;;;;;;9.13;5.05;;;10.10;99.90;;;;;;5028861;28;20065;-76
2022/10/06 01:04:55;;;;;;;13.95;6.43;;;10.00;99.90;;;;;;5028961;28;20048;-76
2022/10/06 01:07:23;;;;;;;12.48;6.72;;;10.00;99.90;;;;;;5028994;28;20579;-76
2022/10/06 01:09:49;;;;;;;24.38;8.35;;;9.90;99.90;;;;;;5027598;28;20029;-75
2022/10/06 01:12:15;;;;;;;;;;;9.80;99.90;;;;;;5029273;28;20033;-75
2022/10/06 01:14:41;;;;;;;28.08;10.93;;;9.80;99.90;;;;;;5028737;28;20373;-75
2022/10/06 01:17:22;;;;;;;21.10;9.10;;;9.70;99.90;;;;;;5028724;28;20067;-75
2022/10/06 01:19:52;;;;;;;18.13;6.80;;;9.80;99.90;;;;;;5029920;28;20659;-75
2022/10/06 01:22:30;;;;;;;14.30;6.07;;;9.70;99.90;;;;;;5027229;28;20033;-75
2022/10/06 01:24:56;;;;;;;14.73;6.03;;;9.70;99.90;;;;;;5028535;28;20079;-75
2022/10/06 01:27:23;;;;;;;;;;;9.70;99.90;;;;;;5027542;28;20037;-75
2022/10/06 01:29:52;;;;;;;17.58;8.02;;;9.70;99.90;;;;;;5028577;28;19905;-75
2022/10/06 01:32:18;;;;;;;13.18;5.95;;;9.60;99.90;;;;;;5028374;28;20041;-75
2022/10/06 01:34:44;;;;;;;;;;;9.70;99.90;;;;;;5028940;28;20029;-76
2022/10/06 01:37:09;;;;;;;18.67;7.70;;;9.50;99.90;;;;;;5028690;28;19909;-75
2022/10/06 01:39:35;;;;;;;;;;;9.60;99.90;;;;;;5029087;28;20389;-75
2022/10/06 01:42:00;;;;;;;18.38;8.27;;;9.50;99.90;;;;;;5027214;28;19979;-75
2022/10/06 01:44:26;;;;;;;;;;;9.50;99.90;;;;;;5028874;28;20112;-75
2022/10/06 01:46:51;;;;;;;18.42;8.57;;;9.50;99.90;;;;;;5026948;28;19939;-75
2022/10/06 01:49:17;;;;;;;;;;;9.40;99.90;;;;;;5027633;28;20029;-75
2022/10/06 01:51:45;;;;;;;19.08;8.00;;;9.40;99.90;;;;;;5028541;28;20728;-75
2022/10/06 01:54:10;;;;;;;20.98;8.77;;;9.40;99.90;;;;;;5026954;28;20029;-75
2022/10/06 01:56:36;;;;;;;;;;;9.40;99.90;;;;;;5027181;28;20103;-74
2022/10/06 01:59:01;;;;;;;14.00;7.55;;;9.30;99.90;;;;;;5026907;28;19966;-76
2022/10/06 02:01:27;;;;;;;12.35;6.70;;;9.20;99.90;;;;;;5028404;28;20028;-75
2022/10/06 02:03:52;;;;;;;;;;;9.30;99.90;;;;;;5027570;28;20521;-75
2022/10/06 02:06:18;;;;;;;11.35;7.55;;;9.30;99.90;;;;;;5026654;28;20000;-76
2022/10/06 02:08:44;;;;;;;;;;;9.20;99.90;;;;;;5027460;28;20022;-76
2022/10/06 02:11:11;;;;;;;19.92;11.48;;;9.20;99.90;;;;;;5028318;28;19967;-75
2022/10/06 02:13:37;;;;;;;23.63;12.57;;;9.20;99.90;;;;;;5027060;28;20121;-75
2022/10/06 02:16:05;;;;;;;20.00;11.43;;;9.20;99.90;;;;;;5026881;28;20573;-75
2022/10/06 02:18:32;;;;;;;25.15;11.43;;;9.20;99.90;;;;;;5027278;28;20057;-75
2022/10/06 02:20:58;;;;;;;20.02;11.77;;;9.20;99.90;;;;;;5028281;28;20024;-74
2022/10/06 02:23:23;;;;;;;;;;;9.20;99.90;;;;;;5028483;28;20030;-75
2022/10/06 02:25:56;;;;;;;15.65;8.65;;;9.10;99.90;;;;;;5028206;28;19964;-75
2022/10/06 02:28:21;;;;;;;21.67;10.27;;;9.00;99.90;;;;;;5028031;28;20028;-75
2022/10/06 02:30:47;;;;;;;;;;;9.10;99.90;;;;;;5028717;28;20029;-75
2022/10/06 02:33:13;;;;;;;26.30;10.93;;;9.10;99.90;;;;;;5026778;28;20307;-75
2022/10/06 02:35:38;;;;;;;;;;;9.00;99.90;;;;;;5028467;28;20095;-75
2022/10/06 02:38:04;;;;;;;22.50;9.05;;;9.10;99.90;;;;;;5026300;28;19908;-75
2022/10/06 02:40:30;;;;;;;;;;;9.00;99.90;;;;;;5028393;28;20029;-76
2022/10/06 02:42:55;;;;;;;17.58;9.82;;;9.00;99.90;;;;;;5026632;28;20411;-76
2022/10/06 02:45:21;;;;;;;;;;;9.00;99.90;;;;;;5028223;28;20461;-75
2022/10/06 02:47:46;;;;;;;33.17;13.00;;;8.90;99.90;;;;;;5027898;28;19915;-75
2022/10/06 02:50:12;;;;;;;24.67;13.63;;;8.90;99.90;;;;;;5026202;28;20552;-75
2022/10/06 02:52:39;;;;;;;;;;;8.90;99.90;;;;;;5028968;28;20036;-75
2022/10/06 02:55:06;;;;;;;;;;;8.90;99.90;;;;;;5030573;28;19909;-75
2022/10/06 02:57:31;;;;;;;32.65;15.52;;;8.90;99.90;;;;;;5031539;28;20420;-75
2022/10/06 02:59:57;;;;;;;;;;;8.80;99.90;;;;;;5030406;28;20033;-75
2022/10/06 03:02:22;;;;;;;27.10;14.05;;;8.80;99.90;;;;;;5031362;28;19948;-75
2022/10/06 03:04:48;;;;;;;;;;;8.80;99.90;;;;;;5031512;28;20494;-75
2022/10/06 03:07:14;;;;;;;27.60;14.20;;;8.80;99.90;;;;;;5031112;28;19909;-75
2022/10/06 03:09:40;;;;;;;28.00;14.85;;;8.80;99.90;;;;;;5030243;28;20060;-75
2022/10/06 03:12:06;;;;;;;;;;;8.80;99.90;;;;;;5031373;28;20067;-75
2022/10/06 03:14:32;;;;;;;24.20;11.70;;;8.70;99.90;;;;;;5030968;28;20007;-75
2022/10/06 03:16:57;;;;;;;32.13;14.73;;;8.70;99.90;;;;;;5031030;28;20026;-75
2022/10/06 03:19:23;;;;;;;;;;;8.70;99.90;;;;;;5031352;28;20037;-75
2022/10/06 03:21:49;;;;;;;20.85;9.77;;;8.70;99.90;;;;;;5030931;28;20747;-75
2022/10/06 03:24:15;;;;;;;;;;;8.70;99.90;;;;;;5031390;28;20033;-75
2022/10/06 03:26:43;;;;;;;14.82;8.15;;;8.70;99.90;;;;;;5029471;28;19923;-75
2022/10/06 03:29:09;;;;;;;20.98;9.57;;;8.70;99.90;;;;;;5029611;28;20585;-75
2022/10/06 03:31:36;;;;;;;13.63;7.65;;;8.60;99.90;;;;;;5030756;28;20505;-75
2022/10/06 03:34:03;;;;;;;12.95;7.72;;;8.60;99.90;;;;;;5030529;28;20029;-75
2022/10/06 03:36:33;;;;;;;17.90;8.63;;;8.60;99.90;;;;;;5029329;28;20044;-76
2022/10/06 03:38:59;;;;;;;18.20;9.27;;;8.60;99.90;;;;;;5030777;28;20029;-75
2022/10/06 03:41:30;;;;;;;18.23;10.05;;;8.60;99.90;;;;;;5029348;28;20263;-75
2022/10/06 03:43:57;;;;;;;17.88;8.88;;;8.50;99.90;;;;;;5030536;28;20037;-75
2022/10/06 03:46:26;;;;;;;20.38;7.93;;;8.50;99.90;;;;;;5028991;28;20057;-75
2022/10/06 03:48:52;;;;;;;15.60;8.57;;;8.50;99.90;;;;;;5030455;28;20103;-75
2022/10/06 03:51:22;;;;;;;;;;;8.50;99.90;;;;;;5031200;28;20034;-75
2022/10/06 03:53:50;;;;;;;19.23;7.93;;;8.50;99.90;;;;;;5029271;28;19905;-75
2022/10/06 03:56:24;;;;;;;12.50;6.55;;;8.50;99.90;;;;;;5028951;28;20083;-75
2022/10/06 03:59:11;;;;;;;12.32;6.75;;;8.50;99.90;;;;;;5030405;28;20131;-75
2022/10/06 04:01:42;;;;;;;14.10;7.32;;;8.40;99.90;;;;;;5029192;28;20033;-75
2022/10/06 04:04:08;;;;;;;12.75;5.68;;;8.40;99.90;;;;;;5029058;28;20145;-75
2022/10/06 04:06:39;;;;;;;16.00;6.72;;;8.40;99.90;;;;;;5030093;28;20037;-75
2022/10/06 04:09:07;;;;;;;9.48;6.18;;;8.50;99.90;;;;;;5030132;28;20029;-75
2022/10/06 04:11:36;;;;;;;11.18;6.03;;;8.40;99.90;;;;;;5029025;28;20034;-75
2022/10/06 04:14:07;;;;;;;9.35;6.05;;;8.50;99.90;;;;;;5030148;28;20022;-75
2022/10/06 04:16:35;;;;;;;11.27;6.53;;;8.30;99.90;;;;;;5029977;28;20037;-75
2022/10/06 04:19:05;;;;;;;20.83;7.72;;;8.30;99.90;;;;;;5028797;28;20029;-75
2022/10/06 04:21:37;;;;;;;14.13;7.05;;;8.30;99.90;;;;;;5030135;28;20064;-75
2022/10/06 04:24:03;;;;;;;14.05;7.88;;;8.40;99.90;;;;;;5028359;28;20029;-75
2022/10/06 04:26:32;;;;;;;11.40;6.55;;;8.30;99.90;;;;;;5030076;28;20033;-75
2022/10/06 04:28:59;;;;;;;12.20;7.20;;;8.30;99.90;;;;;;5030492;28;20026;-75
2022/10/06 04:31:28;;;;;;;17.05;6.28;;;8.30;99.90;;;;;;5029607;28;20575;-74
2022/10/06 04:33:56;;;;;;;16.95;6.55;;;8.30;99.90;;;;;;5030077;28;20582;-75
2022/10/06 04:36:27;;;;;;;13.68;6.28;;;8.30;99.90;;;;;;5030551;28;20108;-75
2022/10/06 04:38:57;;;;;;;9.98;6.10;;;8.30;99.90;;;;;;5029213;28;20413;-75
2022/10/06 04:41:28;;;;;;;9.07;6.00;;;8.30;99.90;;;;;;5030112;28;20365;-74
2022/10/06 04:43:54;;;;;;;11.43;6.22;;;8.30;99.90;;;;;;5031901;28;20025;-75
2022/10/06 04:46:22;;;;;;;12.55;7.40;;;8.30;99.90;;;;;;5029090;28;20065;-75
2022/10/06 04:48:52;;;;;;;13.98;6.78;;;8.30;99.90;;;;;;5029298;28;20405;-75
2022/10/06 04:51:19;;;;;;;13.77;7.45;;;8.30;99.90;;;;;;5028107;28;20120;-75
2022/10/06 04:53:45;;;;;;;14.23;8.32;;;8.30;99.90;;;;;;5030263;28;20037;-75
2022/10/06 04:56:12;;;;;;;;;;;8.20;99.90;;;;;;5032608;28;20517;-75
2022/10/06 04:58:39;;;;;;;;;;;8.20;99.90;;;;;;5029319;28;19932;-75
2022/10/06 05:01:11;;;;;;;20.45;8.50;;;8.20;99.90;;;;;;5035323;28;20594;-76
2022/10/06 05:03:38;;;;;;;10.60;6.38;;;8.20;99.90;;;;;;5034384;28;20029;-75
2022/10/06 05:06:13;;;;;;;9.73;6.47;;;8.20;99.90;;;;;;5030826;28;20056;-75
2022/10/06 05:08:39;;;;;;;10.65;5.68;;;8.20;99.90;;;;;;5036957;28;20061;-75
2022/10/06 05:11:09;;;;;;;;;;;8.20;99.90;;;;;;5048152;28;20067;-75
2022/10/06 05:13:36;;;;;;;14.23;6.05;;;8.20;99.90;;;;;;5049088;28;19913;-75
2022/10/06 05:16:04;;;;;;;14.38;7.53;;;8.30;99.90;;;;;;5048198;28;20024;-75
2022/10/06 05:18:30;;;;;;;20.23;5.97;;;8.30;99.90;;;;;;5048857;28;20021;-75
2022/10/06 05:20:58;;;;;;;14.57;6.90;;;8.30;99.90;;;;;;5048186;28;20025;-75
2022/10/06 05:23:26;;;;;;;15.93;7.57;;;8.30;99.90;;;;;;5047445;28;20123;-75
2022/10/06 05:25:54;;;;;;;23.33;10.43;;;8.50;99.90;;;;;;5048481;28;20433;-75
2022/10/06 05:28:20;;;;;;;29.77;14.77;;;8.40;99.90;;;;;;5048524;28;20033;-76
2022/10/06 05:30:55;;;;;;;33.20;15.27;;;8.50;99.90;;;;;;5047151;28;20111;-75
2022/10/06 05:33:21;;;;;;;24.55;12.32;;;8.60;99.90;;;;;;5047384;28;20547;-75
2022/10/06 05:35:58;;;;;;;;;;;8.70;99.90;;;;;;5047459;28;20029;-75
2022/10/06 05:38:24;;;;;;;29.58;14.18;;;8.80;99.90;;;;;;5047142;28;20373;-75
2022/10/06 05:40:50;;;;;;;;;;;8.90;99.90;;;;;;5048972;28;20113;-75
2022/10/06 05:43:17;;;;;;;35.28;14.82;;;8.90;99.90;;;;;;5048533;28;20007;-75
2022/10/06 05:46:00;;;;;;;28.58;14.43;;;9.00;99.90;;;;;;5048361;28;20053;-75
2022/10/06 05:48:27;;;;;;;27.02;12.88;;;9.10;99.90;;;;;;5046868;28;20090;-75
2022/10/06 05:51:00;;;;;;;34.63;14.80;;;9.20;99.90;;;;;;5047412;28;20106;-75
2022/10/06 05:53:30;;;;;;;26.17;11.45;;;9.30;99.90;;;;;;5047315;28;20033;-75
2022/10/06 05:56:26;;;;;;;22.63;9.70;;;9.40;99.90;;;;;;5048054;28;20136;-75
2022/10/06 05:58:54;;;;;;;25.95;8.73;;;9.60;99.90;;;;;;5048581;28;20037;-76
2022/10/06 06:01:28;;;;;;;26.30;11.15;;;9.70;99.90;;;;;;5048222;28;20066;-76
2022/10/06 06:03:59;;;;;;;14.38;7.63;;;9.90;99.90;;;;;;5048298;28;20062;-76
2022/10/06 06:06:37;;;;;;;13.40;7.80;;;10.10;99.90;;;;;;5047975;28;20030;-76
2022/10/06 06:09:05;;;;;;;12.65;6.68;;;10.40;99.90;;;;;;5046470;28;20032;-75
2022/10/06 06:11:32;;;;;;;20.83;6.80;;;10.70;99.90;;;;;;5046743;28;20436;-76
2022/10/06 06:14:00;;;;;;;10.73;5.32;;;11.10;99.90;;;;;;5046301;28;20021;-75
2022/10/06 06:16:29;;;;;;;10.68;6.43;;;11.50;99.90;;;;;;5047590;28;20029;-75
2022/10/06 06:18:55;;;;;;;11.35;5.15;;;11.90;99.90;;;;;;5047774;28;20025;-75
2022/10/06 06:21:21;;;;;;;;;;;12.40;99.90;;;;;;5047988;28;20519;-76
2022/10/06 06:23:48;;;;;;;18.35;8.75;;;12.80;99.90;;;;;;5047996;28;19954;-76
2022/10/06 06:26:16;;;;;;;12.23;7.40;;;13.30;99.90;;;;;;5047439;28;20044;-76
2022/10/06 06:28:45;;;;;;;13.52;6.50;;;13.90;99.90;;;;;;5050268;28;20017;-76
2022/10/06 06:31:28;;;;;;;16.92;6.88;;;14.70;99.90;;;;;;5051716;28;20025;-76
2022/10/06 06:33:55;;;;;;;11.25;6.18;;;15.60;99.90;;;;;;5050026;28;20060;-76
2022/10/06 06:36:28;;;;;;;14.20;5.85;;;16.30;99.90;;;;;;5047691;28;20104;-76
2022/10/06 06:38:56;;;;;;;14.65;6.78;;;17.20;99.90;;;;;;5042423;28;20061;-77
2022/10/06 06:41:27;;;;;;;8.60;4.95;;;17.90;99.90;;;;;;5046601;28;20428;-75
2022/10/06 06:43:53;;;;;;;12.20;5.65;;;18.50;99.90;;;;;;5050783;28;20512;-76
2022/10/06 06:46:23;;;;;;;12.65;5.57;;;19.00;99.90;;;;;;5041381;28;20030;-76
2022/10/06 06:48:50;;;;;;;17.42;6.13;;;19.40;99.90;;;;;;5031032;28;20021;-77
2022/10/06 06:51:16;;;;;;;12.98;5.03;;;19.90;99.90;;;;;;5030979;28;20038;-76
2022/10/06 06:53:41;;;;;;;10.43;6.03;;;20.20;99.90;;;;;;5030159;28;20021;-76
2022/10/06 06:56:08;;;;;;;21.30;5.55;;;20.40;99.70;;;;;;5029419;28;20064;-76
2022/10/06 06:58:35;;;;;;;10.70;5.40;;;20.70;99.10;;;;;;5036949;28;20108;-77
2022/10/06 07:01:12;;;;;;;11.25;4.57;;;20.80;97.90;;;;;;5049585;28;20501;-76
2022/10/06 07:03:44;;;;;;;13.48;4.32;;;21.00;97.90;;;;;;5029719;28;20112;-76
2022/10/06 07:06:11;;;;;;;7.35;4.25;;;21.10;97.40;;;;;;5030874;28;20042;-76
2022/10/06 07:08:41;;;;;;;7.00;4.85;;;21.30;96.60;;;;;;5030625;28;20100;-76
2022/10/06 07:11:28;;;;;;;8.73;4.05;;;21.40;96.40;;;;;;5031023;28;20067;-75
2022/10/06 07:13:57;;;;;;;11.95;3.92;;;21.30;96.10;;;;;;5029588;28;20108;-75
2022/10/06 07:27:31;;;;;;;9.48;4.93;;;20.10;97.60;;;;;;5049439;28;20111;-76
2022/10/06 07:29:57;;;;;;;8.10;4.75;;;19.90;98.00;;;;;;5043078;28;20041;-75
2022/10/06 07:32:30;;;;;;;13.90;5.80;;;19.80;98.00;;;;;;5030653;28;20441;-76
2022/10/06 07:34:59;;;;;;;10.35;5.43;;;19.70;98.10;;;;;;5029246;28;20577;-76
2022/10/06 07:37:27;;;;;;;8.43;5.05;;;19.60;97.10;;;;;;5030187;28;20026;-76
2022/10/06 07:39:53;;;;;;;10.40;4.72;;;19.40;97.10;;;;;;5029809;28;20026;-76
2022/10/06 07:42:19;;;;;;;10.13;4.40;;;19.20;97.60;;;;;;5029989;28;20512;-76
2022/10/06 07:45:37;;;;;;;14.32;3.97;;;19.10;97.20;;;;;;5031657;28;20031;-76
2022/10/06 07:47:32;;;;;;;7.05;3.78;;;18.90;97.30;;;;;;5049869;28;20033;-76
2022/10/06 07:49:57;;;;;;;7.82;3.83;;;18.80;98.30;;;;;;5040589;28;20048;-75
2022/10/06 07:52:29;;;;;;;8.63;4.30;;;18.70;98.60;;;;;;5039067;28;20366;-76
2022/10/06 07:54:57;;;;;;;9.85;4.00;;;18.70;98.30;;;;;;5030107;28;20037;-76
2022/10/06 07:57:23;;;;;;;7.82;4.60;;;18.80;98.80;;;;;;5028424;28;20421;-76
2022/10/06 07:59:49;;;;;;;7.82;4.70;;;18.80;98.10;;;;;;5028792;28;20524;-76
2022/10/06 08:02:16;;;;;;;8.77;4.22;;;19.00;98.50;;;;;;5030049;28;20061;-76
2022/10/06 08:04:42;;;;;;;12.32;4.20;;;19.30;98.30;;;;;;5029735;28;20099;-76
2022/10/06 08:07:09;;;;;;;7.43;4.10;;;19.70;97.60;;;;;;5029734;28;20084;-76
2022/10/06 08:09:35;;;;;;;5.78;2.80;;;20.40;97.20;;;;;;5028429;28;20437;-76
2022/10/06 08:12:31;;;;;;;4.05;2.13;;;21.10;94.90;;;;;;5029566;28;20029;-76
2022/10/06 08:14:46;;;;;;;9.57;2.35;;;21.80;93.20;;;;;;5029908;28;20088;-74
2022/10/06 08:17:12;;;;;;;7.75;1.88;;;22.40;90.80;;;;;;5029658;28;20030;-75
2022/10/06 08:19:37;;;;;;;6.38;2.53;;;23.00;88.50;;;;;;5032686;28;20596;-76
2022/10/06 08:22:03;;;;;;;10.05;2.70;;;23.60;84.70;;;;;;5047929;28;20072;-76
2022/10/06 08:24:29;;;;;;;8.23;2.45;;;24.10;80.10;;;;;;5048333;28;20094;-76
2022/10/06 08:26:55;;;;;;;6.70;2.42;;;24.60;77.50;;;;;;5049224;28;20091;-77
2022/10/06 08:29:21;;;;;;;4.93;2.67;;;25.00;76.20;;;;;;5049027;28;20036;-76
2022/10/06 08:31:46;;;;;;;6.03;2.78;;;25.00;74.50;;;;;;5049245;28;20809;-76
2022/10/06 08:34:12;;;;;;;7.25;3.00;;;24.70;72.50;;;;;;5049171;28;20039;-77
2022/10/06 08:36:38;;;;;;;6.97;3.00;;;24.20;72.90;;;;;;5047378;28;20538;-77
2022/10/06 08:39:06;;;;;;;9.75;3.28;;;23.70;75.30;;;;;;5049308;28;20082;-76
2022/10/06 08:41:31;;;;;;;5.13;2.33;;;23.50;75.70;;;;;;5047900;28;20029;-77
2022/10/06 08:44:16;;;;;;;6.30;2.03;;;23.50;75.60;;;;;;5048799;28;20440;-76
2022/10/06 08:47:02;;;;;;;5.47;2.72;;;23.60;74.70;;;;;;5048861;28;20033;-76
2022/10/06 08:49:38;;;;;;;6.97;2.92;;;24.20;74.40;;;;;;5048915;28;20029;-77
2022/10/06 08:52:07;;;;;;;8.57;3.00;;;24.90;71.60;;;;;;5048249;28;20144;-76
2022/10/06 08:54:46;;;;;;;8.95;3.20;;;25.30;70.40;;;;;;5048804;28;20029;-77
2022/10/06 08:57:17;;;;;;;5.15;2.80;;;26.00;67.60;;;;;;5047106;28;20049;-76
2022/10/06 08:59:47;;;;;;;6.20;2.20;;;26.20;67.40;;;;;;5047406;28;20025;-77
2022/10/06 09:02:27;;;;;;;13.10;2.95;;;26.40;65.50;;;;;;5047643;28;20393;-74
2022/10/06 09:04:55;;;;;;;4.70;2.15;;;26.70;62.80;;;;;;5047301;28;20032;-74
2022/10/06 09:07:42;;;;;;;7.13;3.00;;;26.80;62.20;;;;;;5047041;28;20068;-74
2022/10/06 09:10:32;;;;;;;11.40;3.40;;;27.00;62.30;;;;;;5048238;28;20021;-75
2022/10/06 09:13:10;;;;;;;5.55;2.78;;;27.30;62.00;;;;;;5047385;28;20454;-74
2022/10/06 09:15:45;;;;;;;6.18;2.72;;;27.40;60.40;;;;;;5048348;28;20090;-77
2022/10/06 09:18:12;;;;;;;9.38;3.13;;;27.60;60.30;;;;;;5047032;28;20497;-77
2022/10/06 09:20:50;;;;;;;6.10;2.90;;;27.70;59.60;;;;;;5048309;28;20024;-77
2022/10/06 09:23:46;;;;;;;6.18;2.70;;;27.80;58.80;;;;;;5048331;28;20505;-76
2022/10/06 09:26:13;;;;;;;5.55;3.13;;;27.70;58.20;;;;;;5047809;28;20037;-76
2022/10/06 09:28:39;;;;;;;12.50;3.05;;;27.60;58.00;;;;;;5047075;28;20029;-77
2022/10/06 09:31:19;;;;;;;10.05;3.28;;;27.50;58.10;;;;;;5046829;28;20028;-76
2022/10/06 09:33:46;;;;;;;7.55;2.42;;;27.40;58.40;;;;;;5048231;28;20163;-76
2022/10/06 09:36:13;;;;;;;6.82;3.40;;;27.30;59.40;;;;;;5048030;28;20068;-75
2022/10/06 09:38:56;;;;;;;13.48;2.88;;;27.20;58.70;;;;;;5048209;28;20110;-77
2022/10/06 09:41:30;;;;;;;7.80;3.03;;;27.30;58.10;;;;;;5041668;28;20033;-76
2022/10/06 09:44:03;;;;;;;8.93;2.60;;;27.60;57.10;;;;;;5043625;28;20037;-77
2022/10/06 09:46:31;;;;;;;6.38;3.05;;;27.40;56.80;;;;;;5048308;28;20192;-76
2022/10/06 09:49:16;;;;;;;6.50;2.53;;;27.40;58.50;;;;;;5036616;28;20541;-77
2022/10/06 09:51:59;;;;;;;6.18;3.20;;;27.50;58.30;;;;;;5028094;28;20029;-76
2022/10/06 09:54:25;;;;;;;7.00;3.05;;;27.60;59.00;;;;;;5026746;28;20021;-77
2022/10/06 09:56:54;;;;;;;8.18;3.47;;;27.30;58.40;;;;;;5027955;28;20076;-76
2022/10/06 09:59:34;;;;;;;4.70;2.17;;;27.40;58.90;;;;;;5026505;28;20088;-77
2022/10/06 10:02:03;;;;;;;6.03;2.55;;;27.40;58.30;;;;;;5027789;28;20467;-77
2022/10/06 10:04:38;;;;;;;4.18;2.08;;;27.50;57.60;;;;;;5034700;28;20399;-75
2022/10/06 10:07:14;;;;;;;4.57;2.33;;;27.10;57.80;;;;;;5030600;28;20045;-76
2022/10/06 10:09:42;;;;;;;5.35;2.70;;;26.40;59.50;;;;;;5031803;28;20029;-76
2022/10/06 10:14:56;;;;;;;5.13;2.40;;;25.20;61.60;;;;;;5032032;28;20053;-76
2022/10/06 10:17:33;;;;;;;4.20;2.72;;;24.50;62.50;;;;;;5030363;28;20116;-76
2022/10/06 10:20:01;;;;;;;9.07;3.15;;;24.30;64.60;;;;;;5031435;28;20075;-76
2022/10/06 10:22:38;;;;;;;10.25;3.78;;;24.00;66.10;;;;;;5031833;28;20026;-75
2022/10/06 10:25:25;;;;;;;4.65;2.28;;;23.90;66.70;;;;;;5030006;28;20591;-76
2022/10/06 10:27:50;;;;;;;;;;;23.80;66.30;;;;;;5032154;28;20132;-72
2022/10/06 10:30:16;;;;;;;8.47;2.47;;;23.60;68.30;;;;;;5031702;28;19999;-76
2022/10/06 10:32:48;;;;;;;11.27;2.75;;;23.20;67.80;;;;;;5031432;28;20033;-76
2022/10/06 10:35:22;;;;;;;5.10;2.35;;;23.10;68.50;;;;;;5031677;28;20030;-75
2022/10/06 10:38:17;;;;;;;6.18;2.38;;;23.00;68.80;;;;;;5029872;28;20029;-76
2022/10/06 10:40:52;;;;;;;7.38;2.90;;;22.90;70.20;;;;;;5031385;28;20031;-76
2022/10/06 10:43:40;;;;;;;9.05;2.78;;;22.80;70.80;;;;;;5029885;28;20033;-76
2022/10/06 10:46:28;;;;;;;8.00;2.97;;;22.40;72.10;;;;;;5030927;28;20537;-75
2022/10/06 10:49:05;;;;;;;6.65;2.35;;;22.30;72.50;;;;;;5031347;28;20029;-75
2022/10/06 10:51:43;;;;;;;4.82;2.10;;;22.20;72.40;;;;;;5031147;28;20075;-77
2022/10/06 10:54:23;;;;;;;6.78;2.05;;;22.10;73.90;;;;;;5030773;28;20029;-76
2022/10/06 10:56:51;;;;;;;7.28;2.20;;;22.00;75.60;;;;;;5031223;28;20050;-75
2022/10/06 10:59:23;;;;;;;6.40;2.83;;;21.90;76.30;;;;;;5029400;28;20629;-76
2022/10/06 11:01:59;;;;;;;5.15;2.00;;;21.80;76.70;;;;;;5030985;28;20037;-75
2022/10/06 11:04:25;;;;;;;5.53;2.00;;;21.70;77.30;;;;;;5029365;28;20040;-75
2022/10/06 11:07:01;;;;;;;9.30;2.58;;;21.50;78.70;;;;;;5030952;28;20529;-75
2022/10/06 11:09:33;;;;;;;5.95;2.40;;;21.50;78.40;;;;;;5029790;28;20025;-76
2022/10/06 11:12:27;;;;;;;5.38;2.42;;;21.40;78.40;;;;;;5029539;28;20048;-76
2022/10/06 11:15:02;;;;;;;3.80;1.95;;;21.40;79.60;;;;;;5028683;28;20029;-75
2022/10/06 11:17:38;;;;;;;8.70;2.47;;;21.40;80.50;;;;;;5030862;28;20041;-76
2022/10/06 11:20:27;;;;;;;4.63;2.40;;;21.40;79.90;;;;;;5030451;28;20032;-76
2022/10/06 11:23:17;;;;;;;6.80;2.55;;;21.30;79.60;;;;;;5029013;28;20696;-77
2022/10/06 11:25:49;;;;;;;5.07;2.03;;;21.40;80.00;;;;;;5027649;28;20104;-76
2022/10/06 11:28:28;;;;;;;3.60;2.03;;;21.30;80.50;;;;;;5030312;28;20041;-77
2022/10/06 11:31:07;;;;;;;6.55;2.20;;;21.30;81.10;;;;;;5030382;28;20493;-76
2022/10/06 11:33:51;;;;;;;4.38;2.10;;;21.30;81.80;;;;;;5029394;28;20026;-76
2022/10/06 11:37:08;;;;;;;4.85;2.20;;;21.30;81.60;;;;;;5030159;28;20041;-76
2022/10/06 11:39:49;;;;;;;5.75;2.13;;;21.20;83.10;;;;;;5007829;28;20091;-77
2022/10/06 11:42:22;;;;;;;7.78;2.70;;;21.20;82.90;;;;;;5024389;28;20037;-77
2022/10/06 11:44:55;;;;;;;4.32;1.85;;;21.20;83.00;;;;;;5029048;28;20035;-76
2022/10/06 11:47:59;;;;;;;5.13;1.98;;;21.20;83.70;;;;;;5028518;28;20057;-76
2022/10/06 11:50:35;;;;;;;4.78;1.70;;;21.30;84.40;;;;;;5019813;28;20038;-77
2022/10/06 11:53:01;;;;;;;4.38;1.88;;;21.40;84.80;;;;;;5028993;28;20177;-76
2022/10/06 11:55:28;;;;;;;5.10;1.90;;;21.40;83.20;;;;;;5029683;28;20135;-76
2022/10/06 11:58:13;;;;;;;4.72;2.03;;;21.50;82.30;;;;;;5029979;28;20018;-77
2022/10/06 12:00:42;;;;;;;5.40;2.22;;;21.70;80.60;;;;;;5029902;28;20494;-76
2022/10/06 12:03:32;;;;;;;4.82;2.22;;;21.80;81.20;;;;;;5029665;28;20021;-76
2022/10/06 12:05:58;;;;;;;4.05;1.67;;;21.90;80.20;;;;;;5029630;28;20042;-76
2022/10/06 12:08:34;;;;;;;3.08;1.90;;;22.00;80.60;;;;;;5029835;28;20037;-77
2022/10/06 12:11:00;;;;;;;4.13;1.70;;;22.00;79.50;;;;;;5029624;28;20105;-77
2022/10/06 12:13:39;;;;;;;3.63;1.80;;;22.10;80.10;;;;;;5029793;28;20128;-76
2022/10/06 12:16:29;;;;;;;4.63;1.85;;;22.20;80.60;;;;;;5028016;28;20040;-77
2022/10/06 12:19:04;;;;;;;5.35;1.80;;;22.20;79.70;;;;;;5028418;28;20748;-77
2022/10/06 12:21:52;;;;;;;6.10;2.00;;;22.20;79.40;;;;;;5028032;28;20124;-76
2022/10/06 12:24:36;;;;;;;10.80;1.80;;;22.10;79.40;;;;;;5027891;28;20106;-76
2022/10/06 12:27:34;;;;;;;10.93;2.13;;;22.10;80.50;;;;;;5027486;28;20037;-76
2022/10/06 12:30:18;;;;;;;6.05;2.20;;;22.00;80.80;;;;;;5027857;28;20037;-76
2022/10/06 12:32:48;;;;;;;3.47;1.55;;;21.90;82.10;;;;;;5027862;28;20116;-76
2022/10/06 12:35:34;;;;;;;5.05;1.95;;;21.80;82.10;;;;;;5028036;28;20022;-76
2022/10/06 12:38:04;;;;;;;5.88;2.13;;;21.70;83.00;;;;;;5027752;28;20036;-76
2022/10/06 12:40:50;;;;;;;5.68;1.88;;;21.60;83.00;;;;;;5029203;28;20129;-76
2022/10/06 12:43:24;;;;;;;6.15;2.35;;;21.40;83.70;;;;;;5027753;28;20510;-77
2022/10/06 12:45:59;;;;;;;4.57;1.80;;;21.30;83.40;;;;;;5028858;28;20064;-77
2022/10/06 12:48:33;;;;;;;3.72;1.60;;;21.30;83.00;;;;;;5028137;28;20026;-76
2022/10/06 12:51:32;;;;;;;5.13;2.20;;;21.30;84.00;;;;;;5029305;28;20033;-77
2022/10/06 12:54:07;;;;;;;3.38;1.70;;;21.10;83.80;;;;;;5027727;28;20436;-77
2022/10/06 12:56:55;;;;;;;4.37;1.60;;;20.90;84.20;;;;;;5028800;28;20045;-76
2022/10/06 12:59:33;;;;;;;7.32;2.13;;;20.70;85.60;;;;;;5027616;28;20025;-77
2022/10/06 13:02:03;;;;;;;6.22;1.73;;;20.60;86.10;;;;;;5027484;28;20029;-75
2022/10/06 13:04:39;;;;;;;5.35;1.95;;;20.50;86.80;;;;;;5027618;28;20041;-77
2022/10/06 13:07:28;;;;;;;5.07;2.13;;;20.50;86.90;;;;;;5027050;28;20506;-76
2022/10/06 13:10:09;;;;;;;4.05;1.75;;;20.40;87.60;;;;;;5028900;28;20079;-76
2022/10/06 13:12:39;;;;;;;5.68;2.00;;;20.50;88.00;;;;;;5026988;28;20082;-76
2022/10/06 13:15:08;;;;;;;4.50;2.10;;;20.50;87.50;;;;;;5028398;28;20055;-76
2022/10/06 13:17:57;;;;;;;6.07;1.83;;;20.50;88.40;;;;;;5027326;28;20420;-76
2022/10/06 13:20:35;;;;;;;4.22;2.17;;;20.60;89.50;;;;;;5028551;28;20029;-76
2022/10/06 13:23:19;;;;;;;4.65;1.63;;;20.70;88.20;;;;;;5027160;28;20540;-77
2022/10/06 13:25:49;;;;;;;5.88;1.95;;;20.90;88.40;;;;;;5028588;28;20037;-77
2022/10/06 13:28:31;;;;;;;3.38;1.73;;;21.00;87.50;;;;;;5028562;28;20033;-77
2022/10/06 13:31:00;;;;;;;7.97;2.30;;;21.10;88.50;;;;;;5027650;28;20029;-76